Latest Weather Observations for Lake Macquarie - Cooranbong

IDN60901

Issued at 10:21 am EDT Thursday 9 February 2023 (issued every 10 minutes, with the page automatically refreshed every 10 minutes)

About weather observations | Map of Sydney area stations | Latest observations for Sydney area | Other Formats
Station Details ID: 061412 Name: LAKE MACQUARIE AWS Lat: -33.09 Lon: 151.46 Height: 6.0 m
Data from the previous 72 hours. | See also: Recent months at Lake Macquarie - Cooranbong
Date/Time
EDT
Temp
°C
App
Temp
°C
Dew
Point
°C
Rel
Hum
%
Delta-T
°C
Wind Press
QNH
hPa
Press
MSL
hPa
Rain since
9am
mm
Dir  Spd
km/h
Gust
km/h
Spd
kts
Gust
kts
09/10:00am 22.8 25.0 18.3 76 2.8 NNE 4 6 2 3 1013.2 1013.2 0.0
09/09:30am 22.8 24.6 18.3 76 2.8 NNE 6 9 3 5 1013.2 1013.2 0.0
09/09:00am 22.3 24.4 18.1 77 2.6 NE 4 9 2 5 1012.9 1012.9 0.0
09/08:30am 22.0 23.5 18.0 78 2.5 NNE 7 13 4 7 1012.7 1012.7 0.0
09/08:00am 21.5 24.0 18.1 81 2.1 N 2 4 1 2 1013.0 1013.0 0.0
09/07:30am 20.8 23.0 18.4 86 1.5 N 4 7 2 4 1012.7 1012.7 0.0
09/07:00am 19.5 22.0 18.2 92 0.8 N 2 4 1 2 1012.7 1012.7 0.0
09/06:30am 18.8 21.4 17.6 93 0.7 CALM 0 2 0 1 1012.6 1012.6 0.0
09/06:00am 19.1 21.6 18.1 94 0.6 NW 2 4 1 2 1012.6 1012.6 0.0
09/05:30am 18.4 21.0 17.4 94 0.6 CALM 0 0 0 0 1012.5 1012.5 0.0
09/05:00am 18.4 20.8 17.1 92 0.8 CALM 0 0 0 0 1012.4 1012.4 0.0
09/04:30am 18.9 21.5 17.4 91 0.9 CALM 0 0 0 0 1012.6 1012.6 0.0
09/04:00am 19.3 21.9 17.6 90 1.0 CALM 0 0 0 0 1012.6 1012.6 0.0
09/03:30am 19.3 21.9 17.6 90 1.0 CALM 0 0 0 0 1012.8 1012.8 0.0
09/03:00am 19.6 22.3 17.7 89 1.2 CALM 0 0 0 0 1012.7 1012.7 0.0
09/02:30am 19.6 22.3 17.7 89 1.2 CALM 0 0 0 0 1013.2 1013.2 0.0
09/02:00am 20.0 22.6 17.4 85 1.6 CALM 0 4 0 2 1013.5 1013.5 0.0
09/01:30am 20.6 23.2 17.4 82 2.0 CALM 0 2 0 1 1013.7 1013.7 0.0
09/01:00am 21.8 24.1 17.6 77 2.6 NNW 2 6 1 3 1014.0 1014.0 0.0
09/12:30am 22.5 24.1 17.8 75 2.9 NE 6 11 3 6 1014.2 1014.2 0.0
09/12:00am 22.4 24.5 18.0 76 2.7 NNE 4 6 2 3 1014.6 1014.6 0.0
 
Date/Time
EDT
Temp
°C
App
Temp
°C
Dew
Point
°C
Rel
Hum
%
Delta-T
°C
Wind Press
QNH
hPa
Press
MSL
hPa
Rain since
9am
mm
Dir  Spd
km/h
Gust
km/h
Spd
kts
Gust
kts
08/11:30pm 22.3 24.7 17.9 76 2.7 NE 2 6 1 3 1014.7 1014.7 0.0
08/11:00pm 22.2 24.0 17.3 74 3.0 NNE 4 6 2 3 1014.7 1014.7 0.0
08/10:30pm 22.7 24.1 17.4 72 3.3 NE 6 11 3 6 1014.7 1014.7 0.0
08/10:00pm 23.0 24.5 17.5 71 3.4 NE 6 13 3 7 1014.6 1014.6 0.0
08/09:30pm 23.2 24.6 17.7 71 3.4 NE 7 15 4 8 1014.3 1014.3 0.0
08/09:00pm 23.3 24.6 17.5 70 3.6 ENE 7 15 4 8 1014.2 1014.2 0.0
08/08:30pm 23.3 24.5 17.3 69 3.7 ENE 7 13 4 7 1014.1 1014.1 0.0
08/08:00pm 23.6 24.8 17.3 67 3.9 E 7 17 4 9 1014.0 1014.0 0.0
08/07:30pm 23.8 23.9 17.5 68 3.9 E 13 22 7 12 1014.0 1014.0 0.0
08/07:00pm 24.0 24.5 17.5 67 4.0 E 11 24 6 13 1013.5 1013.5 0.0
08/06:30pm 24.7 24.8 17.4 64 4.5 E 13 26 7 14 1013.1 1013.1 0.0
08/06:00pm 25.3 25.2 17.0 60 5.1 E 13 24 7 13 1012.9 1012.9 0.0
08/05:30pm 25.6 25.4 17.5 61 5.1 E 15 24 8 13 1012.9 1012.9 0.0
08/05:00pm 26.0 26.0 18.2 62 4.9 E 15 24 8 13 1013.1 1013.1 0.0
08/04:30pm 25.9 25.6 18.3 63 4.8 E 17 30 9 16 1013.2 1013.2 0.0
08/04:00pm 26.3 26.6 17.9 60 5.3 ENE 13 24 7 13 1013.3 1013.3 0.0
08/03:30pm 26.2 26.4 17.6 59 5.4 ENE 13 20 7 11 1013.4 1013.4 0.0
08/03:00pm 26.6 26.3 18.2 60 5.3 E 17 28 9 15 1013.5 1013.5 0.0
08/02:30pm 27.3 27.8 18.3 58 5.7 E 13 22 7 12 1013.6 1013.6 0.0
08/02:00pm 26.7 25.8 17.8 58 5.6 ESE 19 30 10 16 1013.9 1013.9 0.0
08/01:30pm 27.5 27.2 18.2 57 5.9 E 17 30 9 16 1014.0 1014.0 0.0
08/01:00pm 26.9 26.2 16.5 53 6.4 E 15 26 8 14 1014.3 1014.3 0.0
08/12:30pm 27.3 27.2 17.8 56 6.0 ESE 15 24 8 13 1014.5 1014.5 0.0
08/12:00pm 26.9 26.9 17.1 55 6.1 ESE 13 22 7 12 1014.6 1014.6 0.0
08/11:30am 26.8 26.2 16.7 54 6.3 E 15 22 8 12 1015.0 1015.0 0.0
08/11:00am 26.8 26.3 17.0 55 6.1 E 15 20 8 11 1015.1 1015.1 0.0
08/10:30am 26.3 26.5 16.8 56 5.9 E 11 20 6 11 1015.1 1015.1 0.0
08/10:00am 26.3 26.5 16.8 56 5.9 NE 11 20 6 11 1015.2 1015.2 0.0
08/09:30am 24.4 26.8 17.9 67 4.1 N 2 11 1 6 1015.5 1015.5 0.0
08/09:00am 23.8 26.6 18.9 74 3.1 NNE 2 4 1 2 1015.6 1015.6 0.0
08/08:30am 22.0 25.4 19.4 85 1.7 CALM 0 0 0 0 1015.6 1015.6 0.0
08/08:00am 21.1 24.7 19.7 92 0.9 CALM 0 0 0 0 1015.6 1015.6 0.0
08/07:30am 18.6 21.5 18.1 97 0.3 CALM 0 0 0 0 1015.4 1015.4 0.0
08/07:00am 17.4 19.8 17.1 98 0.2 CALM 0 0 0 0 1015.0 1015.0 0.0
08/06:30am 16.9 19.1 16.4 97 0.3 CALM 0 0 0 0 1014.8 1014.8 0.0
08/06:00am 17.1 19.3 16.5 96 0.4 CALM 0 0 0 0 1014.6 1014.6 0.0
08/05:30am 17.4 19.7 16.8 96 0.4 CALM 0 0 0 0 1014.3 1014.3 0.0
08/05:00am 17.8 20.2 17.0 95 0.5 CALM 0 0 0 0 1014.2 1014.2 0.0
08/04:30am 18.1 20.5 17.1 94 0.6 CALM 0 0 0 0 1014.2 1014.2 0.0
08/04:00am 18.4 21.0 17.4 94 0.6 CALM 0 2 0 1 1014.3 1014.3 0.0
08/03:30am 18.3 20.9 17.5 95 0.5 CALM 0 0 0 0 1014.4 1014.4 0.0
08/03:00am 18.3 20.8 17.3 94 0.6 CALM 0 0 0 0 1014.5 1014.5 0.0
08/02:30am 18.3 20.7 17.0 92 0.8 CALM 0 0 0 0 1014.6 1014.6 0.0
08/02:00am 18.6 21.2 17.4 93 0.7 CALM 0 0 0 0 1014.8 1014.8 0.0
08/01:30am 18.7 21.3 17.4 92 0.8 CALM 0 2 0 1 1015.0 1015.0 0.0
08/01:00am 19.2 21.7 17.2 88 1.2 CALM 0 0 0 0 1015.1 1015.1 0.0
08/12:30am 19.8 22.4 17.6 87 1.3 CALM 0 0 0 0 1015.4 1015.4 0.0
08/12:00am 20.5 22.9 17.1 81 2.1 CALM 0 0 0 0 1015.5 1015.5 0.0
 
Date/Time
EDT
Temp
°C
App
Temp
°C
Dew
Point
°C
Rel
Hum
%
Delta-T
°C
Wind Press
QNH
hPa
Press
MSL
hPa
Rain since
9am
mm
Dir  Spd
km/h
Gust
km/h
Spd
kts
Gust
kts
07/11:30pm 21.3 23.4 17.3 78 2.5 NNE 2 4 1 2 1015.4 1015.4 0.0
07/11:00pm 21.9 24.4 17.3 75 2.8 CALM 0 4 0 2 1015.7 1015.7 0.0
07/10:30pm 22.3 24.4 17.2 73 3.1 NE 2 7 1 4 1015.8 1015.8 0.0
07/10:00pm 22.9 24.3 17.4 71 3.4 ENE 6 17 3 9 1015.8 1015.8 0.0
07/09:30pm 23.3 25.1 17.5 70 3.6 NE 4 15 2 8 1015.7 1015.7 0.0
07/09:00pm 23.4 24.8 17.8 71 3.5 ENE 7 17 4 9 1015.5 1015.5 0.0
07/08:30pm 23.4 24.8 17.8 71 3.5 NE 7 13 4 7 1015.2 1015.2 0.0
07/08:00pm 23.6 25.4 18.3 72 3.3 ENE 6 15 3 8 1015.1 1015.1 0.0
07/07:30pm 23.9 25.4 18.1 70 3.6 E 7 13 4 7 1014.6 1014.6 0.0
07/07:00pm 24.3 25.5 18.2 68 3.8 E 9 19 5 10 1014.2 1014.2 0.0
07/06:30pm 24.9 26.2 18.4 67 4.1 ENE 9 17 5 9 1013.8 1013.8 0.0
07/06:00pm 25.4 25.9 18.3 64 4.5 E 13 28 7 15 1013.3 1013.3 0.0
07/05:30pm 25.7 26.3 18.6 65 4.5 ENE 13 28 7 15 1013.3 1013.3 0.0
07/05:00pm 25.9 25.5 18.1 62 4.9 E 17 32 9 17 1013.7 1013.7 0.0
07/04:30pm 26.2 26.2 18.1 61 5.1 E 15 26 8 14 1013.8 1013.8 0.0
07/04:00pm 26.8 27.2 18.9 62 5.1 E 15 22 8 12 1013.7 1013.7 0.0
07/03:30pm 26.8 27.0 18.6 60 5.2 E 15 24 8 13 1014.0 1014.0 0.0
07/03:00pm 26.5 26.7 18.6 62 5.0 E 15 24 8 13 1014.3 1014.3 0.0
07/02:30pm 27.0 28.2 19.1 62 5.1 ENE 11 19 6 10 1014.2 1014.2 0.0
07/02:00pm 27.4 28.4 19.5 62 5.1 E 13 24 7 13 1014.4 1014.4 0.0
07/01:30pm 27.6 28.9 20.2 64 4.8 ENE 13 19 7 10 1014.6 1014.6 0.0
07/01:00pm 27.4 28.1 19.7 63 5.0 E 15 28 8 15 1014.9 1014.9 0.0
07/12:30pm 27.6 29.4 20.4 65 4.7 E 11 20 6 11 1015.1 1015.1 0.0
07/12:00pm 27.2 28.4 20.0 64 4.7 ENE 13 19 7 10 1015.5 1015.5 0.0
07/11:30am 26.5 28.7 20.3 68 4.1 E 9 17 5 9 1015.8 1015.8 0.0
07/11:00am 26.6 28.4 19.5 65 4.6 ENE 9 19 5 10 1015.8 1015.8 0.0
07/10:30am 26.6 29.6 19.2 64 4.8 NE 2 6 1 3 1015.9 1015.9 0.0
07/10:00am 25.8 27.3 19.0 66 4.3 N 9 15 5 8 1016.0 1016.0 0.0
07/09:30am 25.5 28.2 20.3 73 3.4 N 6 11 3 6 1016.1 1016.1 0.0
07/09:00am 23.8 27.1 19.9 79 2.5 N 2 6 1 3 1016.1 1016.1 0.0
07/08:30am 23.8 27.5 19.9 79 2.5 CALM 0 4 0 2 1016.2 1016.2 0.0
07/08:00am 22.9 27.3 21.4 91 1.0 CALM 0 0 0 0 1016.0 1016.0 0.0
07/07:30am 20.4 24.1 19.9 97 0.3 CALM 0 0 0 0 1015.8 1015.8 0.0
07/07:00am 19.0 22.0 18.5 97 0.3 CALM 0 0 0 0 1015.5 1015.5 0.0
07/06:30am 18.8 21.7 18.1 96 0.4 CALM 0 0 0 0 1015.2 1015.2 0.0
07/06:00am 19.2 22.2 18.4 95 0.5 CALM 0 0 0 0 1015.0 1015.0 0.0
07/05:30am 19.9 23.0 18.7 93 0.7 CALM 0 0 0 0 1015.0 1015.0 0.0
07/05:00am 20.9 24.1 18.8 88 1.3 CALM 0 0 0 0 1014.8 1014.8 0.0
07/04:30am 22.2 25.3 19.4 84 1.8 ENE 2 4 1 2 1014.7 1014.7 0.0
07/04:00am 22.7 25.5 19.7 83 1.9 ENE 4 9 2 5 1014.6 1014.6 0.0
07/03:30am 22.7 25.8 20.2 86 1.6 NE 4 9 2 5 1014.7 1014.7 0.0
07/03:00am 21.9 25.8 20.4 91 1.0 CALM 0 4 0 2 1014.8 1014.8 0.0
07/02:30am 20.9 24.4 19.6 92 0.8 CALM 0 0 0 0 1015.0 1015.0 0.0
07/02:00am 20.8 24.2 19.3 91 0.9 CALM 0 0 0 0 1015.1 1015.1 0.0
07/01:30am 20.9 24.2 19.2 90 1.1 CALM 0 0 0 0 1015.3 1015.3 0.0
07/01:00am 21.4 24.7 19.1 87 1.5 CALM 0 0 0 0 1015.5 1015.5 0.0
07/12:30am 22.4 25.8 19.4 83 1.9 CALM 0 0 0 0 1015.7 1015.7 0.0
07/12:00am 22.8 26.0 19.8 83 1.9 NE 2 6 1 3 1015.8 1015.8 0.0
 
Date/Time
EDT
Temp
°C
App
Temp
°C
Dew
Point
°C
Rel
Hum
%
Delta-T
°C
Wind Press
QNH
hPa
Press
MSL
hPa
Rain since
9am
mm
Dir  Spd
km/h
Gust
km/h
Spd
kts
Gust
kts
06/11:30pm 23.1 26.4 19.9 82 2.1 ENE 2 6 1 3 1016.0 1016.0 0.0
06/11:00pm 23.3 26.2 19.9 81 2.2 E 4 9 2 5 1016.0 1016.0 0.0
06/10:30pm 23.6 26.5 19.9 80 2.4 ENE 4 11 2 6 1016.1 1016.1 0.0
06/10:00pm 23.7 26.3 20.0 80 2.4 ENE 6 15 3 8 1016.1 1016.1 0.0
06/09:30pm 23.7 26.1 20.0 80 2.4 ENE 7 15 4 8 1016.1 1016.1 0.0
06/09:00pm 23.7 25.6 19.8 79 2.5 ENE 9 17 5 9 1015.9 1015.9 0.0
06/08:30pm 23.7 26.2 19.8 79 2.5 ENE 6 15 3 8 1015.7 1015.7 0.0
06/08:00pm 23.8 26.1 19.9 79 2.5 ENE 7 15 4 8 1015.6 1015.6 0.0
06/07:30pm 24.1 25.6 19.8 77 2.8 E 11 24 6 13 1015.3 1015.3 0.0
06/07:00pm 24.3 25.8 19.8 76 2.9 E 11 22 6 12 1015.3 1015.3 0.0
06/06:30pm 24.7 25.6 19.3 72 3.5 E 13 26 7 14 1014.9 1014.9 0.0
06/06:00pm 25.2 25.7 19.3 70 3.8 E 15 28 8 15 1014.8 1014.8 0.0
06/05:30pm 25.9 25.7 19.3 67 4.2 E 19 28 10 15 1014.7 1014.7 0.0
06/05:00pm 26.6 27.7 19.7 66 4.5 E 13 22 7 12 1014.9 1014.9 0.0
06/04:30pm 26.1 26.1 19.0 65 4.5 E 17 32 9 17 1015.0 1015.0 0.0
06/04:00pm 26.3 26.6 18.7 63 4.8 ENE 15 24 8 13 1015.2 1015.2 0.0
06/03:30pm 27.2 28.8 20.0 64 4.7 ENE 11 28 6 15 1015.6 1015.6 0.0
06/03:00pm 27.1 28.2 19.7 64 4.8 ENE 13 24 7 13 1015.9 1015.9 0.0
06/02:30pm 27.0 28.0 19.4 63 4.9 E 13 22 7 12 1016.0 1016.0 0.0
06/02:00pm 26.8 27.3 19.2 63 4.9 E 15 26 8 14 1016.2 1016.2 0.0
06/01:30pm 27.1 28.3 20.0 65 4.6 E 13 20 7 11 1016.5 1016.5 0.0
06/01:00pm 27.1 28.2 19.7 64 4.8 E 13 24 7 13 1016.8 1016.8 0.0
06/12:30pm 27.3 28.7 19.6 62 5.0 ESE 11 19 6 10 1017.0 1017.0 0.0
06/12:00pm 26.8 27.9 18.9 62 5.1 E 11 17 6 9 1017.3 1017.3 0.0
06/11:30am 27.0 28.5 18.8 60 5.3 ENE 9 17 5 9 1017.4 1017.4 0.0
06/11:00am 26.1 27.6 17.7 60 5.3 ENE 6 15 3 8 1017.7 1017.7 0.0
06/10:30am 26.2 27.6 18.6 63 4.8 NNE 9 15 5 8 1018.0 1018.0 0.0

Latest Capital City Observations: Canberra | Sydney | Melbourne | Brisbane | Adelaide | Perth | Hobart | Darwin

Other formats

Comma delimited format used in spreadsheet applications
http://www.bom.gov.au/fwo/IDN60901/IDN60901.95767.axf

JavaScript Object Notation format (JSON) in row-major order
http://www.bom.gov.au/fwo/IDN60901/IDN60901.95767.json

Data quality

Most of these data are generated automatically and are frequently updated. Quality checks on data are not normally performed. It is possible for incorrect values to appear. Refer to information at About Latest Weather Observations and please check the disclaimer before using these data.